New Market, Indiana
Current Conditions -  °F | °C
As of 5:35 PM on Monday 24 Nov 2014 (Local Time) from K4I7 Reporting Station
Overcast Overcast  
Wind Chill: 27°   Ceiling: 2900
Heat Index: 37°   Visibility: 10mi
Dew Point: 30°   Wind: 20mph
Humidity: 75%   Direction: 250°WSW
Pressure: 29.77"   Gusts: 29mph
Location:  39.95°N, 86.92°W
Report Text: K4I7 242235Z AUTO 25017G25KT 10SM BKN029 OVC037 03/M01 A2977 RMK AO2
Loading
Personal Weather Stations






























Interactive Weather Map New forecast layout! Learn more

10-Day Weather Forecast

Advertisements
Track Severe Weather on mobile